Rumi Punco, Argentina
Current Conditions -  °F | °C
As of 6:00 AM on Saturday 01 Nov 2014 (Local Time) from SANT Reporting Station
Drizzle Drizzle  
Wind Chill: 63°   Ceiling: 200
Heat Index: 63°   Visibility: 1.5mi
Dew Point: 61°   Wind: 7mph
Humidity: 94%   Direction: 180°S
Pressure: 30.03"   Gusts: NA
Location:  27.99°S, 65.58°W
Report Text: SANT 010900Z 18006KT 2500 DZ BR BKN002BKN009 OVC030 17/16 Q1017
Loading
Personal Weather Stations






























Interactive Weather Map
Tropical Storm Tracking
New forecast layout! Learn more

10-Day Weather Forecast

Advertisements
Track Severe Weather on mobile